Aktualne dane pomiarowe

Uwaga, wersja testowa! Automatyczne pobieranie danych za pomocą narzędzi lub skryptów to umożliwiających jest zabronione.

Dane meteo z obszaru Polski uzyskane na podstawie depesz SYNOP pobieranych co godzinę z NWS. Najedź myszką na symbol przedstawiony w tabeli, aby uzyskać informacje co do jego znaczenia. Prosimy pamiętać, że to testowa wersja strony, która jeszcze nie jest ukończona. Stworzono również jest krótki FAQ dotyczący korzystania z tej podstrony Anomalie temperatury w chwili obecnej odniesione są do okresu referencyjnego 1951-2016. Okres ten będzie później zmieniony na 1981-2010. Kliknij ikonę aby pobrać plik CSV. Kliknij ikonę aby wygenerować mapę synoptyczną dla danego terminu.

Wybierz Datę:    

        

Mińsk Mazowiecki (12376)

Dane terminowe dla wybranej stacji. Kliknij datę, aby otrzymać dane z tego terminu dla wszystkich stacji.

TemperaturaZachmurzenieWiatrCiśnienieOpadyPogoda
 Data t td wb tx tn tg rh  Nt Nl Cl Cm Ch ws wd g1 g2 wx mslp ppp ch 24h 12h t ww ww w1 w2  
2019-06-19 22:00:00 18.8 17.8 18.1--- 9410.0wx-wxwx2wx---1012.2 990.8 -0.3---------
2019-06-19 21:00:00 20.3 18.1 18.7--- 8710.0wx-wxwx3wx---1011.8 990.5 -0.7---------
2019-06-19 20:00:00 20.4 18.0 18.7--- 8610.0wx-wx4wx---1012.1 990.8 0.2---------
2019-06-19 19:00:00 20.9 18.1 18.9--- 8410.0wx-wxwx3wx---1012.4 991.1 -0.3---------
2019-06-19 18:00:00 22.0 18.2 19.3--- 7910.0wx-wxwx3wx---1012.4 991.2 0.4---------
2019-06-19 17:00:00 23.2 17.9 19.6--- 7210.0wxwxwxwxwx4wx---1011.7 990.6 -1.2---wx---
2019-06-19 16:00:00 23.1 16.7 18.8--- 6710.0wxwxwxwx4wx---1012.5 991.4 -0.5---------
2019-06-19 15:00:00 26.5 16.8 20.1--- 5510.0wxwxwxwx5wx---1011.7 990.8 -1.8---------
2019-06-19 14:00:00 26.5 16.8 20.1--- 5510.0wxwxwxwx4wx---1012.7 991.8 -1.4---------
2019-06-19 13:00:00 27.0 16.6 20.2--- 5310.0wxwxwxwx5wx---1012.8 991.9 -1.8---------
2019-06-19 12:00:00 27.2 16.5 20.2--- 5210.0wxwxwxwxwx6wx---1013.5 992.6 -1.6---------
2019-06-19 11:00:00 26.4 16.7 20.0--- 5510.0wxwxwxwxwx6wx---1014.2 993.2 -1.4---------
2019-06-19 10:00:00 25.0 16.5 19.4--- 5910.0wxwxwxwx6wx---1014.8 993.7 -0.9---------
2019-06-19 09:00:00 24.7 18.4 20.4--- 6810.0wxwxwxwx4wx---1015.3 994.2 -0.7---------
2019-06-19 08:00:00 21.9 15.5 17.7--- 6710.0wx-wx5wx---1016.0 994.7 -0.3---------
2019-06-19 07:00:00 21.9 16.2 18.1--- 7010.0wx-wx3wx---1015.9 994.6 -0.1---------
2019-06-19 06:00:00 20.0 14.8 16.5--- 7210.0wx-wx4wx---1016.4 994.9 -0.1---------
2019-06-19 05:00:00 18.8 14.2 15.7--- 7510.0wx-wx3wx---1016.5 995.0 -0.1---------
2019-06-19 04:00:00 17.9 13.8 15.2--- 7710.0wx-wx3wx---1016.4 994.8 -0.7---------
2019-06-19 03:00:00 15.6 12.9 13.8--- 8450.0wx-wx4wx---1016.8 995.0 -0.7---------
2019-06-19 02:00:00 15.3 12.4 13.3--- 8310.0wx-wx3wx---1016.9 995.1 -1.0---------
2019-06-19 01:00:00 15.1 12.2 13.1--- 8310.0wx-wx3wx---1017.4 995.5 -1.2---------
2019-06-19 00:00:00 15.8 12.6 13.6--- 8110.0wx-wx3wx---1017.5 995.7 -1.0---------
2019-06-18 23:00:00 14.8 12.5 13.2--- 8610.0wx-wx3wx---1018.1 996.2 -0.3---------
2019-06-18 22:00:00 15.8 12.7 13.7--- 8210.0wx-wx2wx---1018.5 996.7 0.5---------
2019-06-18 21:00:00 16.9 12.9 14.2--- 7710.0wx-wx2wx---1018.4 996.7 0.7---------
2019-06-18 20:00:00 19.2 13.4 15.4--- 6910.0wx-wx2wx---1018.1 996.5 0.3---------
2019-06-18 19:00:00 20.0 14.1 16.1--- 6910.0wx-wx2wx---1017.7 996.2 -0.4---------
2019-06-18 18:00:00 23.2 13.8 17.3--- 5610.0wx-wx2wx---1017.3 996.0 -1.0---------
2019-06-18 17:00:00 24.7 12.7 17.3--- 4710.0wx-wx3wx---1017.4 996.2 -1.4---------
2019-06-18 16:00:00 25.4 12.6 17.5--- 4510.0wxwxwxwx3wx---1017.7 996.6 -1.6---------
2019-06-18 15:00:00 25.7 12.6 17.7--- 4410.0wxwxwxwx3wx---1018.1 997.0 -1.7---------
2019-06-18 14:00:00 26.1 11.9 17.5--- 4110.0wxwxwxwx2wx---1018.7 997.6 -1.3---------
2019-06-18 13:00:00 25.1 12.4 17.3--- 4510.0wxwxwxwx3wx---1019.4 998.2 -1.2---------
2019-06-18 12:00:00 24.5 12.2 17.0--- 4610.0wxwxwx3wx---1019.9 998.7 -1.0---------
2019-06-18 11:00:00 25.1 13.4 17.8--- 4810.0wxwxwxwx3wx---1020.1 998.9 -1.1---------
2019-06-18 10:00:00 23.8 12.8 17.0--- 5010.0wxwxwxwx3wx---1020.7 999.4 -0.6---------
2019-06-18 09:00:00 22.7 12.9 16.6--- 5410.0wxwxwxwx3wx---1021.1 999.7 -0.3---------
2019-06-18 08:00:00 21.7 13.1 16.3--- 5810.0wx-wx3wx---1021.51000.0 0.2---------
2019-06-18 07:00:00 20.0 12.8 15.4--- 6310.0wx-wx4wx---1021.61000.0 0.4---------
2019-06-18 06:00:00 18.6 11.7 14.3--- 6410.0wx-wx4wx---1021.71000.0 0.2---------
2019-06-18 05:00:00 17.2 10.8 13.2--- 6610.0wx-wx5wx---1021.6 999.8 0.2---------
2019-06-18 04:00:00 15.4 10.8 12.4--- 7410.0wx-wx4wx---1021.6 999.7 0.1---------
2019-06-18 03:00:00 13.2 10.4 11.3--- 8310.0wx-wx3wx---1021.9 999.8 0.2---------
2019-06-18 02:00:00 13.9 9.9 11.3--- 7710.0wx-wx3wx---1021.6 999.6 0.0---------
2019-06-18 01:00:00 13.7 10.5 11.6--- 8110.0wx-wx2wx---1021.7 999.6 0.1---------
2019-06-18 00:00:00 14.5 12.2 12.9--- 8610.0wx-wx3wx---1021.6 999.6 0.2---------
1.4 ms

 

Print Friendly, PDF & Email